createdAt,value
2018-11-04T00:01:04.004Z,11.20
2018-11-04T00:03:37.124Z,11.20
2018-11-04T00:06:08.365Z,11.20
2018-11-04T00:08:39.824Z,11.20
2018-11-04T00:11:11.404Z,11.20
2018-11-04T00:13:43.044Z,11.20
2018-11-04T00:16:13.944Z,11.20
2018-11-04T00:18:46.485Z,11.20
2018-11-04T00:21:17.525Z,11.20
2018-11-04T00:23:49.011Z,11.10
2018-11-04T00:26:19.805Z,11.10
2018-11-04T00:28:51.715Z,11.10
2018-11-04T00:31:21.875Z,11.10
2018-11-04T00:33:53.005Z,11.20
2018-11-04T00:36:24.856Z,11.20
2018-11-04T00:38:57.275Z,11.20
2018-11-04T00:41:28.354Z,11.10
2018-11-04T00:44:00.054Z,11.20
2018-11-04T00:46:31.084Z,11.20
2018-11-04T00:49:03.135Z,11.20
2018-11-04T00:51:34.584Z,11.20
2018-11-04T00:54:07.634Z,11.30
2018-11-04T00:56:39.034Z,11.30
2018-11-04T00:59:18.671Z,11.20
2018-11-04T01:01:50.513Z,11.20
2018-11-04T01:04:22.204Z,11.30
2018-11-04T01:06:55.006Z,11.30
2018-11-04T01:09:30.912Z,11.20
2018-11-04T01:12:11.356Z,11.20
2018-11-04T01:14:43.938Z,11.30
2018-11-04T01:17:15.137Z,11.20
2018-11-04T01:19:45.919Z,11.20
2018-11-04T01:22:16.758Z,11.20
2018-11-04T01:24:49.969Z,11.20
2018-11-04T01:27:21.189Z,11.20
2018-11-04T01:29:53.840Z,11.20
2018-11-04T01:32:25.551Z,11.20
2018-11-04T01:34:59.942Z,11.10
2018-11-04T01:37:39.272Z,11.10
2018-11-04T01:40:10.658Z,11.20
2018-11-04T01:42:46.864Z,11.20
2018-11-04T01:45:17.973Z,11.20
2018-11-04T01:47:49.874Z,11.20
2018-11-04T01:50:21.106Z,11.10
2018-11-04T01:52:57.105Z,11.10
2018-11-04T01:55:28.568Z,11.10
2018-11-04T01:57:59.556Z,11.10
2018-11-04T02:03:18.396Z,11.10
2018-11-04T02:05:49.685Z,11.10
2018-11-04T02:08:19.945Z,11.10
2018-11-04T02:10:51.586Z,11.10
2018-11-04T02:13:22.495Z,11.10
2018-11-04T02:16:02.445Z,11.10
2018-11-04T02:18:33.511Z,11.10
2018-11-04T02:21:05.692Z,11.10
2018-11-04T02:23:37.082Z,11.10
2018-11-04T02:26:08.642Z,11.10
2018-11-04T02:28:39.833Z,11.10
2018-11-04T02:31:11.684Z,11.00
2018-11-04T02:33:42.824Z,11.10
2018-11-04T02:36:14.394Z,11.00
2018-11-04T02:38:54.057Z,11.00
2018-11-04T02:41:26.546Z,11.00
2018-11-04T02:43:57.977Z,11.10
2018-11-04T02:46:29.316Z,11.10
2018-11-04T02:49:01.228Z,11.20
2018-11-04T02:51:32.519Z,11.10
2018-11-04T02:54:03.717Z,11.10
2018-11-04T02:56:34.177Z,11.10
2018-11-04T02:59:08.266Z,11.10
2018-11-04T03:01:40.027Z,11.10
2018-11-04T03:04:11.539Z,11.10
2018-11-04T03:06:44.236Z,11.10
2018-11-04T03:09:20.717Z,11.10
2018-11-04T03:12:00.876Z,11.00
2018-11-04T03:14:32.396Z,11.00
2018-11-04T03:17:04.396Z,11.00
2018-11-04T03:19:35.698Z,11.00
2018-11-04T03:22:08.436Z,11.00
2018-11-04T03:24:42.545Z,11.00
2018-11-04T03:27:13.477Z,11.00
2018-11-04T03:29:44.787Z,11.00
2018-11-04T03:32:17.138Z,11.00
2018-11-04T03:34:47.367Z,10.90
2018-11-04T03:37:26.796Z,10.90
2018-11-04T03:40:00.985Z,10.90
2018-11-04T03:42:33.135Z,10.90
2018-11-04T03:45:04.963Z,10.80
2018-11-04T03:47:41.689Z,10.80
2018-11-04T03:50:13.667Z,10.70
2018-11-04T03:52:44.929Z,10.70
2018-11-04T03:55:17.076Z,10.70
2018-11-04T03:57:48.767Z,10.70
2018-11-04T04:00:20.187Z,10.70
2018-11-04T04:02:51.907Z,10.60
2018-11-04T04:05:31.489Z,10.60
2018-11-04T04:08:03.039Z,10.60
2018-11-04T04:10:35.539Z,10.50
2018-11-04T04:13:09.338Z,10.50
2018-11-04T04:15:43.840Z,10.40
2018-11-04T04:18:15.459Z,10.40
2018-11-04T04:20:56.572Z,10.40
2018-11-04T04:23:28.657Z,10.40
2018-11-04T04:25:59.726Z,10.40
2018-11-04T04:28:30.275Z,10.40
2018-11-04T04:31:00.846Z,10.40
2018-11-04T04:33:33.365Z,10.40
2018-11-04T04:36:04.357Z,10.40
2018-11-04T04:38:36.246Z,10.30
2018-11-04T04:41:08.955Z,10.30
2018-11-04T04:43:40.565Z,10.30
2018-11-04T04:46:11.986Z,10.30
2018-11-04T04:48:43.559Z,10.30
2018-11-04T04:51:14.616Z,10.30
2018-11-04T04:53:47.085Z,10.30
2018-11-04T04:56:17.845Z,10.20
2018-11-04T04:58:48.905Z,10.20
2018-11-04T05:01:20.256Z,10.20
2018-11-04T05:03:51.476Z,10.20
2018-11-04T05:06:22.375Z,10.20
2018-11-04T05:08:53.916Z,10.20
2018-11-04T05:11:25.465Z,10.20
2018-11-04T05:13:58.044Z,10.30
2018-11-04T05:16:29.324Z,10.30
2018-11-04T05:19:09.133Z,10.30
2018-11-04T05:21:41.793Z,10.30
2018-11-04T05:24:15.832Z,10.20
2018-11-04T05:26:47.535Z,10.20
2018-11-04T05:29:28.027Z,10.20
2018-11-04T05:31:59.917Z,10.20
2018-11-04T05:34:40.397Z,10.20
2018-11-04T05:37:12.647Z,10.20
2018-11-04T05:39:46.907Z,10.20
2018-11-04T05:42:18.616Z,10.20
2018-11-04T05:44:58.477Z,10.20
2018-11-04T05:47:30.317Z,10.20
2018-11-04T05:50:04.260Z,10.20
2018-11-04T05:52:39.668Z,10.10
2018-11-04T05:55:12.886Z,10.10
2018-11-04T05:57:44.287Z,10.10
2018-11-04T06:00:17.288Z,10.10
2018-11-04T06:02:48.760Z,10.10
2018-11-04T06:05:20.269Z,10.10
2018-11-04T06:07:50.938Z,10.10
2018-11-04T06:10:22.714Z,10.10
2018-11-04T06:12:54.138Z,10.10
2018-11-04T06:15:25.554Z,10.10
2018-11-04T06:17:57.114Z,10.10
2018-11-04T06:20:33.355Z,10.10
2018-11-04T06:23:12.573Z,10.20
2018-11-04T06:25:50.475Z,10.20
2018-11-04T06:28:21.595Z,10.10
2018-11-04T06:30:53.430Z,10.20
2018-11-04T06:33:25.465Z,10.20
2018-11-04T06:35:57.014Z,10.20
2018-11-04T06:38:28.454Z,10.20
2018-11-04T06:40:59.856Z,10.20
2018-11-04T06:43:39.265Z,10.20
2018-11-04T06:46:10.583Z,10.20
2018-11-04T06:48:49.888Z,10.20
2018-11-04T06:51:21.859Z,10.20
2018-11-04T06:54:01.682Z,10.20
2018-11-04T06:56:34.101Z,10.20
2018-11-04T06:59:13.449Z,10.30
2018-11-04T07:01:45.359Z,10.30
2018-11-04T07:04:28.871Z,10.30
2018-11-04T07:06:59.828Z,10.40
2018-11-04T07:09:31.019Z,10.50
2018-11-04T07:12:03.069Z,10.50
2018-11-04T07:14:33.769Z,10.50
2018-11-04T07:17:04.939Z,10.50
2018-11-04T07:19:36.019Z,10.50
2018-11-04T07:22:07.789Z,10.50
2018-11-04T07:24:38.080Z,10.50
2018-11-04T07:27:08.698Z,10.60
2018-11-04T07:29:39.578Z,10.60
2018-11-04T07:32:11.200Z,10.60
2018-11-04T07:34:42.540Z,10.50
2018-11-04T07:37:12.974Z,10.50
2018-11-04T07:39:43.729Z,10.60
2018-11-04T07:42:20.928Z,10.60
2018-11-04T07:45:00.554Z,10.60
2018-11-04T07:47:33.374Z,10.60
2018-11-04T07:50:04.884Z,10.60
2018-11-04T07:52:36.653Z,10.70
2018-11-04T07:55:17.723Z,10.70
2018-11-04T07:57:48.581Z,10.70
2018-11-04T08:00:19.241Z,10.70
2018-11-04T08:02:51.918Z,10.70
2018-11-04T08:05:22.968Z,10.70
2018-11-04T08:07:54.912Z,10.80
2018-11-04T08:10:26.272Z,10.80
2018-11-04T08:12:59.222Z,10.80
2018-11-04T08:15:30.044Z,10.80
2018-11-04T08:18:00.933Z,10.70
2018-11-04T08:20:32.223Z,10.80
2018-11-04T08:23:03.259Z,10.80
2018-11-04T08:25:33.973Z,10.80
2018-11-04T08:28:05.323Z,10.80
2018-11-04T08:30:37.182Z,10.80
2018-11-04T08:33:09.031Z,10.80
2018-11-04T08:35:40.293Z,10.90
2018-11-04T08:38:10.833Z,10.90
2018-11-04T08:40:42.563Z,10.90
2018-11-04T08:43:14.034Z,10.90
2018-11-04T08:45:54.903Z,10.90
2018-11-04T08:48:26.847Z,11.00
2018-11-04T08:50:57.377Z,11.00
2018-11-04T08:53:31.896Z,11.00
2018-11-04T08:56:03.025Z,11.00
2018-11-04T08:58:34.813Z,11.10
2018-11-04T09:01:06.296Z,11.10
2018-11-04T09:03:37.545Z,11.10
2018-11-04T09:06:09.695Z,11.10
2018-11-04T09:08:40.925Z,11.10
2018-11-04T09:11:13.577Z,11.20
2018-11-04T09:13:45.056Z,11.20
2018-11-04T09:16:21.415Z,11.20
2018-11-04T09:18:52.445Z,11.20
2018-11-04T09:21:23.475Z,11.20
2018-11-04T09:23:54.675Z,11.20
2018-11-04T09:26:26.235Z,11.20
2018-11-04T09:28:57.922Z,11.20
2018-11-04T09:31:30.105Z,11.20
2018-11-04T09:34:00.795Z,11.20
2018-11-04T09:36:33.173Z,11.20
2018-11-04T09:39:11.796Z,11.30
2018-11-04T09:41:42.885Z,11.30
2018-11-04T09:44:14.076Z,11.30
2018-11-04T09:46:45.285Z,11.30
2018-11-04T09:49:16.955Z,11.30
2018-11-04T09:51:53.766Z,11.30
2018-11-04T09:54:25.345Z,11.30
2018-11-04T09:56:56.695Z,11.30
2018-11-04T09:59:30.926Z,11.30
2018-11-04T10:02:02.576Z,11.30
2018-11-04T10:04:34.185Z,11.40
2018-11-04T10:07:06.122Z,11.40
2018-11-04T10:09:45.667Z,11.40
2018-11-04T10:12:17.558Z,11.40
2018-11-04T10:14:57.121Z,11.40
2018-11-04T10:17:35.700Z,11.40
2018-11-04T10:20:09.187Z,11.40
2018-11-04T10:22:48.315Z,11.40
2018-11-04T10:25:28.332Z,11.40
2018-11-04T10:28:00.712Z,11.40
2018-11-04T10:30:32.317Z,11.40
2018-11-04T10:33:02.492Z,11.50
2018-11-04T10:35:34.314Z,11.50
2018-11-04T10:38:11.755Z,11.50
2018-11-04T10:40:49.495Z,11.50
2018-11-04T10:43:22.303Z,11.50
2018-11-04T10:46:00.454Z,11.60
2018-11-04T10:48:31.944Z,11.60
2018-11-04T10:51:03.062Z,11.60
2018-11-04T10:53:33.366Z,11.60
2018-11-04T10:56:05.031Z,11.60
2018-11-04T10:58:37.109Z,11.60
2018-11-04T11:01:09.903Z,11.60
2018-11-04T11:03:41.487Z,11.70
2018-11-04T11:06:13.874Z,11.70
2018-11-04T11:08:44.134Z,11.70
2018-11-04T11:11:15.963Z,11.70
2018-11-04T11:13:46.883Z,11.70
2018-11-04T11:16:18.874Z,11.70
2018-11-04T11:18:55.082Z,11.70
2018-11-04T11:21:26.414Z,11.70
2018-11-04T11:23:58.865Z,11.70
2018-11-04T11:26:29.636Z,11.70
2018-11-04T11:29:01.115Z,11.70
2018-11-04T11:31:32.335Z,11.70
2018-11-04T11:34:03.565Z,11.70
2018-11-04T11:36:35.875Z,11.70
2018-11-04T11:39:13.036Z,11.70
2018-11-04T11:41:44.315Z,11.70
2018-11-04T11:44:15.845Z,11.70
2018-11-04T11:46:51.465Z,11.70
2018-11-04T11:49:31.379Z,11.70
2018-11-04T11:52:06.968Z,11.70
2018-11-04T11:54:37.908Z,11.70
2018-11-04T11:57:09.259Z,11.80
2018-11-04T11:59:40.370Z,11.80
2018-11-04T12:02:11.956Z,11.80
2018-11-04T12:04:43.417Z,11.80
2018-11-04T12:07:15.545Z,11.80
2018-11-04T12:09:46.257Z,11.80
2018-11-04T12:12:18.919Z,11.80
2018-11-04T12:14:50.797Z,11.90
2018-11-04T12:17:21.643Z,11.90
2018-11-04T12:19:53.188Z,11.90
2018-11-04T12:22:25.157Z,11.90
2018-11-04T12:24:58.516Z,12.00
2018-11-04T12:27:38.706Z,12.00
2018-11-04T12:30:11.764Z,12.00
2018-11-04T12:32:43.635Z,12.00
2018-11-04T12:35:15.188Z,12.10
2018-11-04T12:37:47.525Z,12.10
2018-11-04T12:40:21.255Z,12.10
2018-11-04T12:42:52.545Z,12.10
2018-11-04T12:45:23.934Z,12.10
2018-11-04T12:47:55.810Z,12.10
2018-11-04T12:50:29.101Z,12.10
2018-11-04T12:52:59.626Z,12.10
2018-11-04T12:55:30.960Z,12.10
2018-11-04T12:58:03.896Z,12.10
2018-11-04T13:00:44.079Z,12.10
2018-11-04T13:03:14.966Z,12.10
2018-11-04T13:05:52.337Z,12.10
2018-11-04T13:08:24.296Z,12.10
2018-11-04T13:11:00.247Z,12.10
2018-11-04T13:13:32.179Z,12.20
2018-11-04T13:16:04.209Z,12.20
2018-11-04T13:18:35.792Z,12.20
2018-11-04T13:21:16.194Z,12.20
2018-11-04T13:23:47.851Z,12.20
2018-11-04T13:26:19.571Z,12.20
2018-11-04T13:28:51.876Z,12.20
2018-11-04T13:31:22.602Z,12.20
2018-11-04T13:34:02.260Z,12.20
2018-11-04T13:36:33.280Z,12.20
2018-11-04T13:39:06.000Z,12.20
2018-11-04T13:41:37.161Z,12.20
2018-11-04T13:44:08.234Z,12.20
2018-11-04T13:46:38.951Z,12.20
2018-11-04T13:49:11.266Z,12.20
2018-11-04T13:51:42.013Z,12.20
2018-11-04T13:54:13.612Z,12.20
2018-11-04T13:56:45.374Z,12.20
2018-11-04T13:59:16.580Z,12.20
2018-11-04T14:01:47.717Z,12.20
2018-11-04T14:04:19.657Z,12.20
2018-11-04T14:06:51.266Z,12.20
2018-11-04T14:09:23.937Z,12.20
2018-11-04T14:11:56.067Z,12.20
2018-11-04T14:14:27.049Z,12.10
2018-11-04T14:16:59.057Z,12.10
2018-11-04T14:19:30.817Z,12.10
2018-11-04T14:22:03.096Z,12.10
2018-11-04T14:24:33.938Z,12.10
2018-11-04T14:27:04.418Z,12.10
2018-11-04T14:29:35.395Z,12.10
2018-11-04T14:32:06.865Z,12.10
2018-11-04T14:34:38.027Z,12.10
2018-11-04T14:37:09.541Z,12.10
2018-11-04T14:39:42.327Z,12.10
2018-11-04T14:42:13.576Z,12.00
2018-11-04T14:44:44.346Z,12.00
2018-11-04T14:47:15.674Z,12.00
2018-11-04T14:49:48.055Z,12.00
2018-11-04T14:52:20.704Z,12.00
2018-11-04T14:54:51.866Z,12.00
2018-11-04T14:57:23.579Z,11.90
2018-11-04T14:59:55.288Z,11.90
2018-11-04T15:02:26.654Z,11.90
2018-11-04T15:05:01.727Z,11.90
2018-11-04T15:07:34.865Z,11.90
2018-11-04T15:10:06.316Z,11.90
2018-11-04T15:12:37.535Z,11.90
2018-11-04T15:15:10.172Z,11.90
2018-11-04T15:17:44.849Z,11.90
2018-11-04T15:20:15.727Z,11.90
2018-11-04T15:22:50.214Z,11.90
2018-11-04T15:25:22.147Z,11.80
2018-11-04T15:27:53.254Z,11.80
2018-11-04T15:30:24.515Z,11.80
2018-11-04T15:32:57.056Z,11.70
2018-11-04T15:35:28.965Z,11.70
2018-11-04T15:38:00.277Z,11.70
2018-11-04T15:40:31.436Z,11.60
2018-11-04T15:43:03.665Z,11.60
2018-11-04T15:45:34.161Z,11.60
2018-11-04T15:48:04.720Z,11.50
2018-11-04T15:50:35.464Z,11.50
2018-11-04T15:53:06.807Z,11.50
2018-11-04T15:55:37.955Z,11.50
2018-11-04T15:58:08.485Z,11.50
2018-11-04T16:00:40.336Z,11.50
2018-11-04T16:03:11.227Z,11.40
2018-11-04T16:05:42.867Z,11.40
2018-11-04T16:08:14.069Z,11.40
2018-11-04T16:10:47.215Z,11.40
2018-11-04T16:13:18.256Z,11.40
2018-11-04T16:15:49.062Z,11.40
2018-11-04T16:18:20.029Z,11.40
2018-11-04T16:20:51.710Z,11.40
2018-11-04T16:23:22.441Z,11.30
2018-11-04T16:25:53.278Z,11.30
2018-11-04T16:28:24.365Z,11.30
2018-11-04T16:30:56.936Z,11.20
2018-11-04T16:33:27.862Z,11.20
2018-11-04T16:35:58.655Z,11.20
2018-11-04T16:38:30.356Z,11.20
2018-11-04T16:41:01.135Z,11.20
2018-11-04T16:43:33.888Z,11.20
2018-11-04T16:46:05.196Z,11.20
2018-11-04T16:48:35.607Z,11.20
2018-11-04T16:51:18.616Z,11.20
2018-11-04T16:53:50.060Z,11.20
2018-11-04T16:56:21.531Z,11.20
2018-11-04T16:58:52.980Z,11.10
2018-11-04T17:01:24.611Z,11.10
2018-11-04T17:03:56.139Z,11.10
2018-11-04T17:06:27.695Z,11.10
2018-11-04T17:08:58.516Z,11.10
2018-11-04T17:11:32.556Z,11.10
2018-11-04T17:14:03.811Z,11.10
2018-11-04T17:16:35.068Z,11.10
2018-11-04T17:19:06.062Z,11.00
2018-11-04T17:21:37.280Z,11.10
2018-11-04T17:24:08.640Z,11.00
2018-11-04T17:26:39.564Z,11.10
2018-11-04T17:29:11.251Z,11.00
2018-11-04T17:31:44.420Z,11.10
2018-11-04T17:34:16.003Z,11.10
2018-11-04T17:36:47.782Z,11.00
2018-11-04T17:39:19.210Z,11.00
2018-11-04T17:41:54.791Z,11.00
2018-11-04T17:44:25.890Z,11.00
2018-11-04T17:46:57.622Z,11.00
2018-11-04T17:49:29.471Z,10.90
2018-11-04T17:52:02.081Z,10.90
2018-11-04T17:54:33.332Z,10.90
2018-11-04T17:57:04.940Z,11.00
2018-11-04T17:59:35.891Z,11.00
2018-11-04T18:02:08.000Z,10.90
2018-11-04T18:04:40.122Z,10.90
2018-11-04T18:07:12.065Z,10.90
2018-11-04T18:09:44.151Z,10.90
2018-11-04T18:12:28.050Z,10.90
2018-11-04T18:14:59.480Z,10.90
2018-11-04T18:17:31.270Z,10.90
2018-11-04T18:20:02.750Z,10.90
2018-11-04T18:22:34.331Z,10.90
2018-11-04T18:25:05.641Z,10.80
2018-11-04T18:27:36.820Z,10.80
2018-11-04T18:30:10.090Z,10.80
2018-11-04T18:32:43.260Z,10.80
2018-11-04T18:35:14.941Z,10.80
2018-11-04T18:37:46.941Z,10.80
2018-11-04T18:40:19.703Z,10.80
2018-11-04T18:42:51.399Z,10.80
2018-11-04T18:45:22.640Z,10.70
2018-11-04T18:47:54.151Z,10.70
2018-11-04T18:50:26.936Z,10.70
2018-11-04T18:53:00.273Z,10.70
2018-11-04T18:55:31.640Z,10.70
2018-11-04T18:58:02.971Z,10.60
2018-11-04T19:00:35.420Z,10.60
2018-11-04T19:03:08.460Z,10.60
2018-11-04T19:05:39.647Z,10.60
2018-11-04T19:08:12.471Z,10.60
2018-11-04T19:10:43.651Z,10.60
2018-11-04T19:13:15.240Z,10.60
2018-11-04T19:15:47.512Z,10.60
2018-11-04T19:18:20.151Z,10.60
2018-11-04T19:20:53.021Z,10.60
2018-11-04T19:23:24.511Z,10.50
2018-11-04T19:25:56.310Z,10.50
2018-11-04T19:28:29.081Z,10.50
2018-11-04T19:31:00.433Z,10.50
2018-11-04T19:33:32.153Z,10.50
2018-11-04T19:36:03.324Z,10.50
2018-11-04T19:38:35.020Z,10.40
2018-11-04T19:41:05.771Z,10.40
2018-11-04T19:43:37.051Z,10.30
2018-11-04T19:46:08.320Z,10.30
2018-11-04T19:48:41.830Z,10.30
2018-11-04T19:51:14.631Z,10.30
2018-11-04T19:53:46.051Z,10.30
2018-11-04T19:56:17.041Z,10.20
2018-11-04T19:58:48.831Z,10.20
2018-11-04T20:01:20.620Z,10.30
2018-11-04T20:03:52.241Z,10.20
2018-11-04T20:06:23.796Z,10.20
2018-11-04T20:08:59.891Z,10.10
2018-11-04T20:11:31.740Z,10.10
2018-11-04T20:14:07.530Z,10.10
2018-11-04T20:16:38.470Z,10.10
2018-11-04T20:19:14.658Z,10.10
2018-11-04T20:21:46.140Z,10.10
2018-11-04T20:24:22.800Z,10.00
2018-11-04T20:26:54.280Z,10.00
2018-11-04T20:29:26.621Z,10.00
2018-11-04T20:32:02.302Z,10.00
2018-11-04T20:34:34.446Z,10.00
2018-11-04T20:37:06.961Z,10.00
2018-11-04T20:39:44.551Z,10.00
2018-11-04T20:42:21.330Z,10.00
2018-11-04T20:44:53.851Z,9.90
2018-11-04T20:47:30.230Z,9.90
2018-11-04T20:50:06.730Z,9.90
2018-11-04T20:52:37.690Z,9.90
2018-11-04T20:55:09.150Z,9.90
2018-11-04T20:57:45.531Z,9.80
2018-11-04T21:00:17.650Z,9.80
2018-11-04T21:02:49.273Z,9.80
2018-11-04T21:05:20.570Z,9.70
2018-11-04T21:07:52.920Z,9.70
2018-11-04T21:10:24.500Z,9.70
2018-11-04T21:12:55.660Z,9.70
2018-11-04T21:15:27.651Z,9.60
2018-11-04T21:17:58.659Z,9.60
2018-11-04T21:20:30.820Z,9.60
2018-11-04T21:23:01.962Z,9.60
2018-11-04T21:25:33.976Z,9.60
2018-11-04T21:28:05.286Z,9.60
2018-11-04T21:30:37.080Z,9.60
2018-11-04T21:33:08.638Z,9.70
2018-11-04T21:35:40.080Z,9.60
2018-11-04T21:38:11.441Z,9.60
2018-11-04T21:40:43.805Z,9.60
2018-11-04T21:43:14.978Z,9.70
2018-11-04T21:45:45.795Z,9.70
2018-11-04T21:48:17.190Z,9.70
2018-11-04T21:50:48.500Z,9.70
2018-11-04T21:53:19.432Z,9.70
2018-11-04T21:55:50.856Z,9.70
2018-11-04T21:58:22.152Z,9.70
2018-11-04T22:00:55.232Z,9.70
2018-11-04T22:03:26.203Z,9.70
2018-11-04T22:05:57.990Z,9.60
2018-11-04T22:08:28.270Z,9.60
2018-11-04T22:10:59.831Z,9.60
2018-11-04T22:13:31.395Z,9.50
2018-11-04T22:16:02.614Z,9.50
2018-11-04T22:18:34.320Z,9.50
2018-11-04T22:21:06.409Z,9.50
2018-11-04T22:23:39.421Z,9.50
2018-11-04T22:26:14.288Z,9.50
2018-11-04T22:28:47.931Z,9.50
2018-11-04T22:31:19.491Z,9.50
2018-11-04T22:33:50.612Z,9.50
2018-11-04T22:36:21.386Z,9.50
2018-11-04T22:38:52.031Z,9.50
2018-11-04T22:41:25.260Z,9.50
2018-11-04T22:43:55.701Z,9.50
2018-11-04T22:46:27.630Z,9.60
2018-11-04T22:48:58.301Z,9.60
2018-11-04T22:51:30.480Z,9.60
2018-11-04T22:54:01.201Z,9.70
2018-11-04T22:56:32.529Z,9.70
2018-11-04T22:59:03.550Z,9.70
2018-11-04T23:01:46.713Z,9.80
2018-11-04T23:04:22.351Z,9.80
2018-11-04T23:06:53.431Z,9.80
2018-11-04T23:09:25.780Z,9.80
2018-11-04T23:11:56.501Z,9.90
2018-11-04T23:14:27.764Z,9.90
2018-11-04T23:16:58.241Z,9.90
2018-11-04T23:19:30.421Z,10.00
2018-11-04T23:22:02.301Z,10.00
2018-11-04T23:24:35.122Z,10.00
2018-11-04T23:27:06.415Z,10.00
2018-11-04T23:29:36.931Z,10.00
2018-11-04T23:32:08.679Z,10.00
2018-11-04T23:34:40.320Z,10.10
2018-11-04T23:37:10.870Z,10.10
2018-11-04T23:39:41.290Z,10.20
2018-11-04T23:42:18.294Z,10.20
2018-11-04T23:44:49.941Z,10.30
2018-11-04T23:47:21.700Z,10.40
2018-11-04T23:49:52.242Z,10.50
2018-11-04T23:52:22.700Z,10.50
2018-11-04T23:54:54.090Z,10.60
2018-11-04T23:57:24.710Z,10.60
2018-11-04T23:59:56.380Z,10.70
